Terminal Aerodrome Forecast
Issued by NWS

Home | Current Version | Previous Version | Text Only | Print | Product List | Glossary On
Versions: 1 2 3 4 5 6 7 8 9 10 11 12 13 14
000
FTUS45 KABQ 282324
TAFTCC
TAF
KTCC 282324Z 2900/2924 04018G26KT P6SM SCT120
     FM290300 10013KT P6SM BKN100
     FM291100 01014G22KT P6SM OVC050
     FM291500 25015KT P6SM BKN060
     FM291900 25020G32KT P6SM VCSH BKN100=

USA.gov is the U.S. government's official web portal to all federal, state and local government web resources and services.